WMI weather

Modlin Airport
Warsaw, Masovia, Poland

Public forecast

Using degrees Celsius for public forecast. Weather courtesy of forecast.io.

METAR (pilot weather report)

Retrieved 2019/03/27 00:30 UTC (0 seconds ago):

EPMO 270030Z 30008KT CAVOK M01/M03 Q1022

TAF (pilot weather forecast)

Forecast is more than 12 hours old.

Retrieved 2019/03/26 00:00 UTC (1 day ago):

TAF EPMO 262330Z 2700/2724 30007KT CAVOK PROB40 2702/2707 BKN005 BECMG 2718/2720 -RA BKN014 TEMPO 2720/2724 3000 RADZ BR BKN005